Time;durP1;ratioP1;P1;durP2;ratioP2;P2;SDS_P1;SDS_P2;PMS_P1;PMS_P2;Temp;Humidity;BMP_temperature;BMP_pressure;BME280_temperature;BME280_humidity;BME280_pressure;Samples;Min_cycle;Max_cycle;Signal;HPM_P1;HPM_P2
2023/01/08 00:01:45;;;;;;;19.27;4.22;;;;;;;6.12;100.00;98954.78;4982460;28;20018;-53
2023/01/08 00:04:10;;;;;;;22.77;4.63;;;;;;;6.07;100.00;98954.56;4992862;28;20408;-51
2023/01/08 00:06:36;;;;;;;9.13;3.53;;;;;;;6.02;100.00;98955.16;4981598;28;20471;-51
2023/01/08 00:09:02;;;;;;;6.65;2.25;;;;;;;6.08;100.00;98950.91;4982735;28;20034;-52
2023/01/08 00:11:27;;;;;;;9.98;2.22;;;;;;;6.13;100.00;98951.13;4982625;28;20403;-52
2023/01/08 00:13:53;;;;;;;17.42;1.98;;;;;;;6.16;100.00;98953.34;4983884;28;20356;-52
2023/01/08 00:16:19;;;;;;;5.45;1.38;;;;;;;6.06;100.00;98958.19;4985884;28;20040;-55
2023/01/08 00:18:45;;;;;;;6.80;2.25;;;;;;;6.13;100.00;98958.22;4986413;28;20026;-53
2023/01/08 00:21:11;;;;;;;7.40;1.52;;;;;;;6.23;100.00;98954.19;4985973;28;20375;-55
2023/01/08 00:23:36;;;;;;;5.75;0.93;;;;;;;6.31;100.00;98935.56;4983472;28;20026;-54
2023/01/08 00:26:07;;;;;;;9.52;2.85;;;;;;;6.43;100.00;98934.94;4979357;28;20081;-56
2023/01/08 00:28:33;;;;;;;11.43;1.38;;;;;;;6.45;100.00;98935.56;4980258;28;20034;-53
2023/01/08 00:31:00;;;;;;;16.27;1.05;;;;;;;6.50;100.00;98943.66;4981542;28;20027;-59
2023/01/08 00:33:25;;;;;;;19.73;1.75;;;;;;;6.55;100.00;98933.34;4987824;28;20034;-56
2023/01/08 00:35:51;;;;;;;9.20;1.05;;;;;;;6.57;100.00;98931.31;4985528;28;20455;-53
2023/01/08 00:38:16;;;;;;;9.57;1.05;;;;;;;6.64;100.00;98926.88;4988539;28;20036;-53
2023/01/08 00:40:41;;;;;;;15.88;1.00;;;;;;;6.66;100.00;98914.31;4987962;28;20135;-52
2023/01/08 00:43:07;;;;;;;6.93;1.80;;;;;;;6.55;100.00;98907.00;4988377;28;20037;-54
2023/01/08 00:45:32;;;;;;;19.27;1.52;;;;;;;6.57;100.00;98907.63;4987327;28;20030;-62
2023/01/08 00:47:58;;;;;;;10.07;1.40;;;;;;;6.54;100.00;98913.31;4985977;28;20032;-54
2023/01/08 00:50:24;;;;;;;10.90;1.67;;;;;;;6.55;100.00;98910.44;4980999;28;20066;-54
2023/01/08 00:52:50;;;;;;;7.15;1.98;;;;;;;6.57;100.00;98898.91;4986531;28;20022;-51
2023/01/08 00:55:16;;;;;;;10.35;0.77;;;;;;;6.60;100.00;98896.69;4984527;28;20029;-57
2023/01/08 00:57:41;;;;;;;9.35;2.15;;;;;;;6.69;100.00;98910.47;4983918;28;20030;-53
2023/01/08 01:00:10;;;;;;;9.05;1.08;;;;;;;6.68;100.00;98898.28;4985241;28;20041;-54
2023/01/08 01:02:36;;;;;;;10.77;2.17;;;;;;;6.87;100.00;98901.94;4984541;28;20026;-55
2023/01/08 01:05:03;;;;;;;12.68;1.60;;;;;;;6.92;100.00;98883.69;4984704;28;20034;-53
2023/01/08 01:07:28;;;;;;;14.32;3.35;;;;;;;6.81;100.00;98882.47;4986664;28;20033;-52
2023/01/08 01:09:54;;;;;;;7.72;1.50;;;;;;;6.83;100.00;98890.19;4985626;28;20026;-56
2023/01/08 01:12:19;;;;;;;10.50;1.02;;;;;;;6.84;100.00;98892.63;4986826;28;20118;-54
2023/01/08 01:14:44;;;;;;;17.00;2.60;;;;;;;6.82;100.00;98883.31;4984472;28;20438;-55
2023/01/08 01:17:11;;;;;;;9.15;1.00;;;;;;;6.87;100.00;98876.41;4982890;28;20026;-52
2023/01/08 01:19:37;;;;;;;8.80;1.00;;;;;;;6.89;100.00;98868.25;4983534;28;20628;-53
2023/01/08 01:22:02;;;;;;;11.88;0.57;;;;;;;6.76;100.00;98872.56;4986528;28;20034;-55
2023/01/08 01:24:28;;;;;;;15.32;1.02;;;;;;;6.73;100.00;98867.69;4983713;28;20038;-55
2023/01/08 01:26:55;;;;;;;7.78;1.30;;;;;;;6.68;100.00;98866.69;4983999;28;20105;-51
2023/01/08 01:29:21;;;;;;;8.93;1.80;;;;;;;6.65;100.00;98867.91;4983326;28;20026;-53
2023/01/08 01:31:46;;;;;;;16.33;1.70;;;;;;;6.63;100.00;98869.94;4984158;28;20026;-57
2023/01/08 01:34:12;;;;;;;9.10;1.23;;;;;;;6.59;100.00;98868.75;4982962;28;20417;-56
2023/01/08 01:36:37;;;;;;;7.55;1.58;;;;;;;6.61;100.00;98871.97;4981238;28;20468;-56
2023/01/08 01:39:04;;;;;;;16.92;3.00;;;;;;;6.70;100.00;98872.56;4983116;28;20033;-53
2023/01/08 01:41:41;;;;;;;14.32;1.08;;;;;;;6.73;100.00;98866.88;4984069;28;20057;-53
2023/01/08 01:44:33;;;;;;;7.03;1.42;;;;;;;6.66;100.00;98856.38;4983257;28;20042;-54
2023/01/08 01:47:04;;;;;;;8.93;1.42;;;;;;;6.58;100.00;98855.75;4984858;28;20038;-50
2023/01/08 01:49:29;;;;;;;13.15;2.60;;;;;;;6.65;100.00;98862.63;4982260;28;20100;-58
2023/01/08 01:52:01;;;;;;;9.05;1.77;;;;;;;6.81;100.00;98865.84;4985501;28;20054;-57
2023/01/08 01:54:27;;;;;;;8.32;2.05;;;;;;;6.74;100.00;98865.88;4984222;28;20035;-53
2023/01/08 01:56:53;;;;;;;10.82;1.98;;;;;;;6.74;100.00;98860.63;4984184;28;20038;-54
2023/01/08 01:59:18;;;;;;;23.55;2.05;;;;;;;6.71;100.00;98856.56;4984332;28;20032;-57
2023/01/08 02:01:45;;;;;;;14.10;1.90;;;;;;;6.77;100.00;98855.75;4978688;28;20129;-53
2023/01/08 02:04:12;;;;;;;10.45;1.98;;;;;;;6.75;100.00;98863.03;4983463;28;20117;-55
2023/01/08 02:06:44;;;;;;;10.95;1.40;;;;;;;6.77;100.00;98862.84;4981414;28;20388;-53
2023/01/08 02:09:40;;;;;;;9.80;1.77;;;;;;;6.81;100.00;98863.22;4983833;28;20101;-54
2023/01/08 02:12:18;;;;;;;9.15;2.45;;;;;;;6.86;100.00;98873.94;4984096;28;20036;-52
2023/01/08 02:15:02;;;;;;;9.15;1.45;;;;;;;6.84;100.00;98874.19;4985119;28;20031;-54
2023/01/08 02:17:42;;;;;;;4.88;1.20;;;;;;;6.96;100.00;98877.78;4982601;28;20034;-50
2023/01/08 02:20:16;;;;;;;21.08;2.63;;;;;;;6.90;100.00;98870.72;4979626;28;20074;-53
2023/01/08 02:22:53;;;;;;;16.20;1.73;;;;;;;6.88;100.00;98870.09;4980505;28;20034;-61
2023/01/08 02:25:56;;;;;;;4.50;0.85;;;;;;;6.91;100.00;98871.50;4987770;28;20366;-52
2023/01/08 02:28:23;;;;;;;9.27;1.27;;;;;;;6.89;100.00;98870.91;4984427;28;20038;-56
2023/01/08 02:30:49;;;;;;;16.02;1.92;;;;;;;6.93;100.00;98864.22;4988019;28;20034;-54
2023/01/08 02:33:14;;;;;;;10.98;1.48;;;;;;;6.97;100.00;98870.69;4993254;28;20536;-55
2023/01/08 02:36:11;;;;;;;10.20;1.35;;;;;;;6.95;100.00;98862.19;4985126;28;20137;-52
2023/01/08 02:38:49;;;;;;;8.20;0.57;;;;;;;6.91;100.00;98853.88;4986172;28;20034;-53
2023/01/08 02:41:16;;;;;;;7.68;1.90;;;;;;;6.89;100.00;98847.19;4984609;28;20070;-55
2023/01/08 02:43:46;;;;;;;11.65;2.60;;;;;;;6.90;100.00;98849.63;4985313;28;20030;-51
2023/01/08 02:46:20;;;;;;;8.85;2.47;;;;;;;6.97;100.00;98853.06;4989160;28;20026;-56
2023/01/08 02:48:50;;;;;;;10.55;2.03;;;;;;;7.05;100.00;98830.09;4987216;28;20547;-55
2023/01/08 02:51:27;;;;;;;15.25;3.97;;;;;;;7.15;100.00;98827.84;4985196;28;20432;-53
2023/01/08 02:53:58;;;;;;;12.27;1.92;;;;;;;7.26;100.00;98821.13;4988785;28;20030;-52
2023/01/08 02:56:29;;;;;;;10.45;1.85;;;;;;;7.28;100.00;98811.16;4988187;28;20026;-53
2023/01/08 02:58:58;;;;;;;12.82;1.55;;;;;;;7.28;100.00;98825.19;4989215;28;20040;-53
2023/01/08 03:01:26;;;;;;;12.85;2.38;;;;;;;7.34;100.00;98845.41;4987542;28;20030;-50
2023/01/08 03:03:56;;;;;;;8.07;1.75;;;;;;;7.36;100.00;98838.13;4988624;28;20033;-53
2023/01/08 03:06:23;;;;;;;8.63;1.95;;;;;;;7.30;100.00;98835.50;4990226;28;20037;-55
2023/01/08 03:08:51;;;;;;;17.30;1.42;;;;;;;7.21;100.00;98842.84;4988474;28;20397;-50
2023/01/08 03:11:20;;;;;;;12.50;1.88;;;;;;;7.23;100.00;98859.25;4990634;28;20034;-59
2023/01/08 03:13:48;;;;;;;3.90;1.38;;;;;;;7.03;100.00;98890.16;4989355;28;20023;-66
2023/01/08 03:16:26;;;;;;;2.20;0.88;;;;;;;6.62;100.00;98901.75;4989938;28;20033;-56
2023/01/08 03:19:00;;;;;;;4.40;1.63;;;;;;;6.40;100.00;98901.97;4988184;28;20038;-64
2023/01/08 03:21:26;;;;;;;3.78;0.35;;;;;;;6.20;100.00;98899.31;4987040;28;20539;-54
2023/01/08 03:23:52;;;;;;;5.97;0.00;;;;;;;6.00;100.00;98895.84;4989952;28;20057;-63
2023/01/08 03:26:21;;;;;;;2.60;0.00;;;;;;;5.90;100.00;98890.94;4988590;28;20408;-57
2023/01/08 03:28:51;;;;;;;0.65;0.10;;;;;;;5.90;100.00;98890.94;4984688;28;20080;-63
2023/01/08 03:31:18;;;;;;;0.55;0.10;;;;;;;5.98;100.00;98877.63;4986513;28;20026;-56
2023/01/08 03:33:45;;;;;;;2.17;0.10;;;;;;;6.02;100.00;98867.53;4988658;28;20027;-54
2023/01/08 03:36:15;;;;;;;0.65;0.13;;;;;;;5.95;100.00;98866.69;4987229;28;20027;-54
2023/01/08 03:38:46;;;;;;;0.95;0.00;;;;;;;5.98;100.00;98872.34;4986563;28;20031;-53
2023/01/08 03:41:17;;;;;;;2.47;0.10;;;;;;;6.00;100.00;98875.59;4988750;28;20029;-55
2023/01/08 03:43:43;;;;;;;0.65;0.20;;;;;;;5.87;100.00;98871.09;4986788;28;20392;-53
2023/01/08 03:46:13;;;;;;;2.30;0.00;;;;;;;5.81;100.00;98877.16;4989583;28;20100;-53
2023/01/08 03:48:39;;;;;;;1.08;0.00;;;;;;;5.67;100.00;98875.50;4986349;28;20026;-52
2023/01/08 03:51:09;;;;;;;6.50;0.00;;;;;;;5.58;100.00;98880.13;4988215;28;20442;-55
2023/01/08 03:53:34;;;;;;;1.98;0.40;;;;;;;5.46;100.00;98879.88;4993616;28;20038;-55
2023/01/08 03:56:00;;;;;;;1.52;0.80;;;;;;;5.31;100.00;98871.34;4989363;28;20023;-57
2023/01/08 03:58:25;;;;;;;0.17;0.00;;;;;;;5.18;100.00;98866.03;4989183;28;20080;-51
2023/01/08 04:00:51;;;;;;;2.20;0.00;;;;;;;5.14;100.00;98877.94;4986777;28;20065;-54
2023/01/08 04:03:16;;;;;;;5.38;0.68;;;;;;;5.19;100.00;98878.97;4989102;28;20049;-54
2023/01/08 04:05:42;;;;;;;2.80;0.30;;;;;;;5.24;100.00;98881.84;4989291;28;20027;-55
2023/01/08 04:08:07;;;;;;;2.97;0.20;;;;;;;5.36;100.00;98876.81;4987349;28;20113;-56
2023/01/08 04:10:32;;;;;;;1.40;0.15;;;;;;;5.44;100.00;98870.56;4987119;28;20034;-56
2023/01/08 04:12:58;;;;;;;2.08;0.40;;;;;;;5.52;100.00;98872.22;4986580;28;20034;-57
2023/01/08 04:15:23;;;;;;;1.83;0.93;;;;;;;5.54;100.00;98871.00;4990584;28;20065;-57
2023/01/08 04:17:48;;;;;;;0.20;0.10;;;;;;;5.63;100.00;98874.28;4999661;28;20026;-52
2023/01/08 04:20:14;;;;;;;2.90;0.20;;;;;;;5.66;100.00;98866.00;4992044;28;20056;-51
2023/01/08 04:22:39;;;;;;;0.75;0.00;;;;;;;5.66;100.00;98861.53;4995354;28;20025;-54
2023/01/08 04:25:05;;;;;;;2.95;0.10;;;;;;;5.77;100.00;98859.34;4999508;28;20376;-54
2023/01/08 04:27:30;;;;;;;0.93;0.82;;;;;;;5.82;100.00;98854.31;4995440;28;20384;-56
2023/01/08 04:29:55;;;;;;;5.03;0.38;;;;;;;5.85;100.00;98857.34;4993783;28;20533;-56
2023/01/08 04:32:21;;;;;;;5.75;0.30;;;;;;;5.85;100.00;98852.06;4991916;28;20615;-56
2023/01/08 04:34:46;;;;;;;1.08;0.08;;;;;;;5.69;100.00;98842.75;4990414;28;20535;-57
2023/01/08 04:37:11;;;;;;;2.20;0.00;;;;;;;5.63;100.00;98848.00;4986868;28;20061;-59
2023/01/08 04:39:37;;;;;;;1.63;0.43;;;;;;;5.65;100.00;98851.22;4991097;28;20512;-56
2023/01/08 04:42:02;;;;;;;2.42;0.20;;;;;;;5.70;100.00;98851.44;4991116;28;20061;-57
2023/01/08 04:44:27;;;;;;;1.13;0.10;;;;;;;5.67;100.00;98850.00;4990550;28;20030;-57
2023/01/08 04:46:53;;;;;;;0.77;0.00;;;;;;;5.58;100.00;98848.59;4996704;28;20064;-54
2023/01/08 04:49:18;;;;;;;0.65;0.10;;;;;;;5.44;100.00;98854.81;4994513;28;20048;-57
2023/01/08 04:51:44;;;;;;;1.40;0.00;;;;;;;5.32;100.00;98851.94;4991523;28;20046;-55
2023/01/08 04:54:09;;;;;;;1.42;0.00;;;;;;;5.28;100.00;98837.56;4996175;28;20026;-53
2023/01/08 04:56:34;;;;;;;4.15;0.38;;;;;;;5.36;100.00;98842.66;4989271;28;20030;-56
2023/01/08 04:59:00;;;;;;;0.22;0.13;;;;;;;5.41;100.00;98836.81;4989215;28;20034;-54
2023/01/08 05:01:27;;;;;;;0.70;0.10;;;;;;;5.44;100.00;98845.09;4997093;28;20026;-56
2023/01/08 05:03:59;;;;;;;0.47;0.20;;;;;;;5.40;100.00;98841.25;4994152;28;20027;-58
2023/01/08 05:06:25;;;;;;;0.20;0.00;;;;;;;5.31;100.00;98844.25;4990574;28;20034;-57
2023/01/08 05:08:50;;;;;;;0.90;0.10;;;;;;;5.13;100.00;98842.16;4990290;28;20038;-57
2023/01/08 05:11:16;;;;;;;3.90;0.63;;;;;;;5.07;100.00;98845.56;4988942;28;20149;-56
2023/01/08 05:13:42;;;;;;;1.52;0.10;;;;;;;5.06;100.00;98851.81;4989181;28;20038;-52
2023/01/08 05:16:07;;;;;;;0.43;0.00;;;;;;;5.05;100.00;98835.25;4990961;28;20031;-57
2023/01/08 05:18:32;;;;;;;1.27;0.68;;;;;;;5.07;100.00;98843.75;4996418;28;20368;-53
2023/01/08 05:21:03;;;;;;;1.55;0.00;;;;;;;5.08;100.00;98836.66;4989404;28;20200;-51
2023/01/08 05:23:30;;;;;;;1.55;0.05;;;;;;;5.21;100.00;98832.31;4994158;28;20053;-57
2023/01/08 05:26:00;;;;;;;2.28;0.00;;;;;;;5.29;100.00;98833.13;4990433;28;20117;-53
2023/01/08 05:28:27;;;;;;;2.67;0.00;;;;;;;5.35;100.00;98819.19;4993409;28;20510;-56
2023/01/08 05:30:53;;;;;;;3.50;0.00;;;;;;;5.09;100.00;98809.41;4988864;28;20038;-56
2023/01/08 05:33:18;;;;;;;0.90;0.00;;;;;;;4.93;100.00;98816.63;4992179;28;20033;-53
2023/01/08 05:35:44;;;;;;;0.65;0.00;;;;;;;4.95;100.00;98819.84;4990158;28;20463;-57
2023/01/08 05:38:09;;;;;;;0.05;0.00;;;;;;;5.02;100.00;98815.44;4992643;28;20038;-54
2023/01/08 05:40:34;;;;;;;3.83;0.30;;;;;;;5.00;100.00;98816.63;4993572;28;20091;-52
2023/01/08 05:43:00;;;;;;;1.13;0.10;;;;;;;4.87;100.00;98820.00;4992139;28;20357;-54
2023/01/08 05:45:26;;;;;;;0.00;0.00;;;;;;;4.81;100.00;98820.78;4991893;28;20089;-51
2023/01/08 05:47:53;;;;;;;2.80;0.00;;;;;;;4.93;100.00;98829.75;4990373;28;20023;-54
2023/01/08 05:50:18;;;;;;;2.00;0.10;;;;;;;5.19;100.00;98825.63;4990613;28;20035;-56
2023/01/08 05:52:43;;;;;;;4.35;0.10;;;;;;;5.38;100.00;98824.88;4995195;28;20041;-57
2023/01/08 05:55:09;;;;;;;3.67;0.03;;;;;;;5.45;100.00;98830.97;4983926;28;20500;-55
2023/01/08 05:57:34;;;;;;;2.10;0.00;;;;;;;5.44;100.00;98826.69;4995017;28;20033;-53
2023/01/08 05:59:59;;;;;;;5.15;0.20;;;;;;;5.47;100.00;98836.00;4993163;28;20038;-54
2023/01/08 06:02:25;;;;;;;0.60;0.00;;;;;;;5.44;100.00;98831.94;5000050;28;20034;-54
2023/01/08 06:04:50;;;;;;;0.60;0.00;;;;;;;5.42;100.00;98827.91;4992016;28;20101;-58
2023/01/08 06:07:15;;;;;;;1.75;0.00;;;;;;;5.38;100.00;98819.59;4995834;28;20019;-55
2023/01/08 06:09:41;;;;;;;3.67;0.17;;;;;;;5.44;100.00;98818.81;4993001;28;20037;-54
2023/01/08 06:12:06;;;;;;;0.65;0.00;;;;;;;5.32;100.00;98819.56;4995378;28;20494;-55
2023/01/08 06:14:32;;;;;;;2.67;0.00;;;;;;;5.32;100.00;98820.41;4994062;28;20029;-56
2023/01/08 06:16:57;;;;;;;2.30;0.10;;;;;;;5.23;100.00;98824.22;4993970;28;20030;-56
2023/01/08 06:19:22;;;;;;;2.92;0.30;;;;;;;5.16;100.00;98829.44;4995995;28;20472;-55
2023/01/08 06:21:48;;;;;;;3.30;0.00;;;;;;;5.15;100.00;98830.44;4987066;28;20088;-51
2023/01/08 06:24:13;;;;;;;1.33;0.00;;;;;;;5.09;100.00;98833.06;4997755;28;20116;-54
2023/01/08 06:26:39;;;;;;;3.30;0.10;;;;;;;5.05;100.00;98824.75;4994678;28;20033;-54
2023/01/08 06:29:04;;;;;;;1.20;0.10;;;;;;;5.07;100.00;98827.19;4995179;28;20033;-55
2023/01/08 06:31:29;;;;;;;1.05;0.28;;;;;;;5.16;100.00;98823.38;4992227;28;20033;-56
2023/01/08 06:33:55;;;;;;;0.22;0.00;;;;;;;5.11;100.00;98818.72;4996406;28;20037;-54
2023/01/08 06:36:20;;;;;;;0.40;0.20;;;;;;;5.11;100.00;98823.97;4990419;28;20042;-57
2023/01/08 06:38:45;;;;;;;0.57;0.00;;;;;;;5.10;100.00;98824.16;4995311;28;20034;-53
2023/01/08 06:41:11;;;;;;;4.53;0.15;;;;;;;5.07;100.00;98827.19;4992303;28;20078;-56
2023/01/08 06:43:37;;;;;;;2.83;0.20;;;;;;;5.17;100.00;98823.19;4990364;28;20050;-55
2023/01/08 06:46:08;;;;;;;2.10;0.00;;;;;;;5.14;100.00;98820.94;4988989;28;20038;-54
2023/01/08 06:48:34;;;;;;;1.85;0.00;;;;;;;5.11;100.00;98825.78;4991612;28;20030;-56
2023/01/08 06:51:00;;;;;;;0.90;0.10;;;;;;;5.12;100.00;98824.78;4989525;28;20096;-56
2023/01/08 06:53:25;;;;;;;0.30;0.08;;;;;;;5.21;100.00;98824.41;4989088;28;20540;-56
2023/01/08 06:55:55;;;;;;;2.83;0.80;;;;;;;5.25;100.00;98827.44;4995327;28;20026;-55
2023/01/08 06:58:24;;;;;;;1.25;0.00;;;;;;;5.08;100.00;98815.66;4989672;28;20507;-57
2023/01/08 07:00:50;;;;;;;3.05;0.10;;;;;;;5.00;100.00;98814.81;4988557;28;20033;-55
2023/01/08 07:03:15;;;;;;;0.77;0.22;;;;;;;4.98;100.00;98814.22;4986910;28;20034;-54
2023/01/08 07:05:41;;;;;;;3.33;0.00;;;;;;;4.91;100.00;98823.06;4995274;28;20042;-53
2023/01/08 07:08:12;;;;;;;0.85;0.85;;;;;;;4.87;100.00;98821.81;4997937;28;20468;-55
2023/01/08 07:10:37;;;;;;;4.72;0.10;;;;;;;4.87;100.00;98816.56;4994646;28;20107;-57
2023/01/08 07:13:03;;;;;;;2.35;0.40;;;;;;;4.84;100.00;98812.53;4993685;28;20125;-57
2023/01/08 07:15:28;;;;;;;2.78;0.73;;;;;;;4.91;100.00;98815.19;4998244;28;20188;-56
2023/01/08 07:17:53;;;;;;;0.65;0.10;;;;;;;5.03;100.00;98816.25;4992728;28;20031;-54
2023/01/08 07:20:19;;;;;;;5.05;0.65;;;;;;;5.13;100.00;98810.63;4988980;28;20057;-55
2023/01/08 07:22:44;;;;;;;0.60;0.38;;;;;;;5.10;100.00;98805.75;4991761;28;20117;-53
2023/01/08 07:25:09;;;;;;;7.07;1.80;;;;;;;5.03;100.00;98800.47;4992642;28;20485;-51
2023/01/08 07:27:35;;;;;;;0.45;0.00;;;;;;;4.91;100.00;98797.63;4995720;28;20026;-55
2023/01/08 07:30:00;;;;;;;2.00;0.10;;;;;;;4.89;100.00;98790.94;4992761;28;20026;-56
2023/01/08 07:32:25;;;;;;;3.35;0.68;;;;;;;4.83;100.00;98795.16;4996196;28;20114;-55
2023/01/08 07:34:53;;;;;;;3.22;0.13;;;;;;;4.82;100.00;98783.81;4992907;28;20119;-54
2023/01/08 07:37:18;;;;;;;0.10;0.10;;;;;;;4.91;100.00;98788.94;4993788;28;20613;-54
2023/01/08 07:39:43;;;;;;;4.22;0.35;;;;;;;5.03;100.00;98784.72;4995549;28;20117;-57
2023/01/08 07:42:09;;;;;;;3.90;0.05;;;;;;;5.01;100.00;98784.13;4991859;28;20026;-56
2023/01/08 07:44:34;;;;;;;0.20;0.10;;;;;;;4.89;100.00;98778.59;4994155;28;20475;-56
2023/01/08 07:46:59;;;;;;;2.35;0.20;;;;;;;4.80;100.00;98779.75;4999465;28;20068;-56
2023/01/08 07:49:24;;;;;;;1.58;0.20;;;;;;;4.76;100.00;98776.72;4997900;28;20382;-54
2023/01/08 07:51:50;;;;;;;0.90;0.00;;;;;;;4.69;100.00;98775.88;4998224;28;20148;-56
2023/01/08 07:54:15;;;;;;;0.98;0.17;;;;;;;4.64;100.00;98780.09;4997963;28;20581;-56
2023/01/08 07:56:41;;;;;;;1.58;0.20;;;;;;;4.61;100.00;98783.13;4991337;28;20067;-54
2023/01/08 07:59:06;;;;;;;5.15;0.47;;;;;;;4.55;100.00;98772.38;4996074;28;20034;-55
2023/01/08 08:01:31;;;;;;;8.35;0.10;;;;;;;4.52;100.00;98771.97;4998679;28;20029;-54
2023/01/08 08:03:56;;;;;;;1.30;0.03;;;;;;;4.44;100.00;98770.31;4989866;28;20161;-54
2023/01/08 08:06:22;;;;;;;1.80;0.25;;;;;;;4.47;100.00;98772.53;4988580;28;20089;-54
2023/01/08 08:08:47;;;;;;;2.70;0.10;;;;;;;4.53;100.00;98777.00;5002026;28;20475;-56
2023/01/08 08:11:13;;;;;;;4.07;0.30;;;;;;;4.64;100.00;98774.84;4991947;28;20027;-56
2023/01/08 08:13:43;;;;;;;6.20;0.65;;;;;;;4.76;100.00;98768.06;4990440;28;20080;-53
2023/01/08 08:16:09;;;;;;;4.27;0.33;;;;;;;4.83;100.00;98776.78;4989770;28;20484;-54
2023/01/08 08:18:34;;;;;;;6.82;0.40;;;;;;;4.81;100.00;98769.06;4990453;28;20030;-51
2023/01/08 08:21:00;;;;;;;8.90;0.25;;;;;;;4.83;100.00;98766.28;4987244;28;20169;-54
2023/01/08 08:23:26;;;;;;;1.90;0.13;;;;;;;4.89;100.00;98773.34;4992417;28;20117;-54
2023/01/08 08:25:51;;;;;;;1.08;0.17;;;;;;;4.88;100.00;98765.66;4987898;28;20389;-57
2023/01/08 08:28:16;;;;;;;2.75;0.82;;;;;;;5.05;100.00;98766.13;4996032;28;20038;-55
2023/01/08 08:30:42;;;;;;;3.85;0.20;;;;;;;5.27;100.00;98758.91;4990962;28;20515;-54
2023/01/08 08:33:07;;;;;;;2.03;0.38;;;;;;;5.34;100.00;98759.75;4995234;28;20022;-57
2023/01/08 08:35:33;;;;;;;1.15;0.35;;;;;;;5.37;100.00;98760.19;4984662;28;20036;-55
2023/01/08 08:37:59;;;;;;;3.00;0.00;;;;;;;5.42;100.00;98741.16;4992359;28;20117;-51
2023/01/08 08:40:25;;;;;;;0.30;0.00;;;;;;;5.37;100.00;98739.16;4994058;28;20117;-55
2023/01/08 08:43:02;;;;;;;5.10;1.65;;;;;;;5.38;100.00;98735.50;4986917;28;20030;-52
2023/01/08 08:45:27;;;;;;;2.40;0.47;;;;;;;5.35;100.00;98740.34;4996432;28;20022;-51
2023/01/08 08:47:53;;;;;;;5.72;0.20;;;;;;;5.47;100.00;98744.81;4993546;28;20438;-55
2023/01/08 08:50:19;;;;;;;1.17;0.13;;;;;;;5.50;100.00;98729.63;4990410;28;20038;-53
2023/01/08 08:52:45;;;;;;;5.38;0.20;;;;;;;5.51;100.00;98731.28;4988818;28;20026;-54
2023/01/08 08:55:14;;;;;;;2.95;0.38;;;;;;;5.59;100.00;98725.81;4986858;28;20038;-54
2023/01/08 08:57:40;;;;;;;5.30;0.10;;;;;;;5.70;100.00;98717.31;4989109;28;20105;-52
2023/01/08 09:00:06;;;;;;;7.90;0.65;;;;;;;5.74;100.00;98715.91;4986425;28;20161;-56
2023/01/08 09:02:31;;;;;;;2.45;1.38;;;;;;;5.71;100.00;98708.44;4986951;28;20072;-54
2023/01/08 09:04:56;;;;;;;2.63;0.10;;;;;;;5.74;100.00;98697.50;4988952;28;20030;-56
2023/01/08 09:07:22;;;;;;;1.27;0.22;;;;;;;5.89;100.00;98694.66;4988718;28;20390;-53
2023/01/08 09:09:47;;;;;;;7.05;0.30;;;;;;;5.90;100.00;98691.00;4987818;28;20064;-56
2023/01/08 09:12:12;;;;;;;2.28;0.30;;;;;;;5.96;100.00;98686.78;4988177;28;20472;-53
2023/01/08 09:14:38;;;;;;;2.78;0.17;;;;;;;5.94;100.00;98688.81;4985765;28;20065;-55
2023/01/08 09:17:03;;;;;;;1.40;0.47;;;;;;;5.89;100.00;98674.44;4987370;28;20168;-56
2023/01/08 09:19:28;;;;;;;9.48;0.60;;;;;;;5.97;100.00;98670.00;4984783;28;20125;-56
2023/01/08 09:21:54;;;;;;;4.13;0.52;;;;;;;5.98;100.00;98669.78;4988567;28;20060;-53
2023/01/08 09:24:19;;;;;;;11.43;0.93;;;;;;;5.96;100.00;98671.81;4986968;28;20026;-56
2023/01/08 09:26:44;;;;;;;5.05;0.40;;;;;;;5.99;100.00;98665.31;4987365;28;20026;-55
2023/01/08 09:29:09;;;;;;;1.95;0.43;;;;;;;6.04;100.00;98678.66;4990019;28;20380;-53
2023/01/08 09:31:35;;;;;;;5.18;0.43;;;;;;;6.04;100.00;98665.50;4989797;28;20046;-55
2023/01/08 09:34:00;;;;;;;6.13;0.90;;;;;;;6.05;100.00;98667.16;4988719;28;20033;-55
2023/01/08 09:36:26;;;;;;;7.35;1.67;;;;;;;6.05;100.00;98672.41;4984882;28;20035;-56
2023/01/08 09:38:51;;;;;;;3.35;0.40;;;;;;;6.08;100.00;98664.09;4989519;28;20044;-52
2023/01/08 09:41:24;;;;;;;2.05;0.38;;;;;;;6.01;100.00;98666.72;4989866;28;20018;-51
2023/01/08 09:43:51;;;;;;;6.45;0.85;;;;;;;5.89;100.00;98661.28;4992720;28;20034;-51
2023/01/08 09:46:20;;;;;;;3.83;0.47;;;;;;;5.98;100.00;98658.44;4991199;28;20029;-53
2023/01/08 09:48:47;;;;;;;6.03;0.95;;;;;;;5.89;100.00;98652.59;4985139;28;20022;-54
2023/01/08 09:51:16;;;;;;;2.88;0.30;;;;;;;6.01;100.00;98652.78;4991319;28;20053;-52
2023/01/08 09:53:43;;;;;;;7.05;1.67;;;;;;;6.11;100.00;98653.16;4992153;28;20041;-57
2023/01/08 09:56:18;;;;;;;1.05;0.30;;;;;;;6.15;100.00;98640.41;4992076;28;20057;-52
2023/01/08 09:58:43;;;;;;;6.70;0.55;;;;;;;6.20;100.00;98637.97;4989512;28;20077;-56
2023/01/08 10:01:13;;;;;;;5.38;0.63;;;;;;;6.27;100.00;98638.72;4990905;28;20042;-51
2023/01/08 10:03:42;;;;;;;6.18;1.65;;;;;;;6.36;100.00;98642.75;4985142;28;20037;-57
2023/01/08 10:06:12;;;;;;;4.85;0.90;;;;;;;6.48;100.00;98645.53;4990514;28;20150;-52
2023/01/08 10:08:38;;;;;;;4.00;0.50;;;;;;;6.61;100.00;98644.66;4991811;28;20542;-53
2023/01/08 10:11:04;;;;;;;10.02;0.95;;;;;;;6.65;100.00;98635.34;4990445;28;20297;-51
2023/01/08 10:13:32;;;;;;;5.57;1.83;;;;;;;6.67;100.00;98636.75;4989635;28;20080;-51
2023/01/08 10:15:58;;;;;;;5.88;0.50;;;;;;;6.67;100.00;98620.94;4990940;28;20026;-54
2023/01/08 10:18:26;;;;;;;4.97;0.73;;;;;;;6.72;100.00;98623.75;4989972;28;20092;-53
2023/01/08 10:20:52;;;;;;;5.22;1.20;;;;;;;6.68;100.00;98627.81;4979303;28;20065;-53
2023/01/08 10:23:21;;;;;;;3.90;0.40;;;;;;;6.70;100.00;98633.69;4983754;28;20061;-57
2023/01/08 10:25:58;;;;;;;4.28;0.47;;;;;;;6.72;100.00;98641.38;4995818;28;20368;-53
2023/01/08 10:28:26;;;;;;;10.65;1.55;;;;;;;6.75;100.00;98633.88;4992408;28;20488;-55
2023/01/08 10:30:57;;;;;;;8.60;1.35;;;;;;;6.90;100.00;98641.50;4989972;28;20027;-54
2023/01/08 10:33:30;;;;;;;3.28;0.40;;;;;;;6.88;100.00;98629.53;4991260;28;20030;-60
2023/01/08 10:36:01;;;;;;;6.70;1.95;;;;;;;6.94;100.00;98628.69;4990321;28;20054;-61
2023/01/08 10:38:55;;;;;;;1.25;0.17;;;;;;;6.99;100.00;98613.03;4988748;28;20042;-54
2023/01/08 10:41:21;;;;;;;4.32;0.10;;;;;;;6.90;100.00;98612.50;4987495;28;20034;-56
2023/01/08 10:43:59;;;;;;;2.28;0.30;;;;;;;6.86;100.00;98603.41;4991250;28;20093;-55
2023/01/08 10:46:47;;;;;;;9.57;0.32;;;;;;;6.91;100.00;98589.59;4995577;28;20035;-53
2023/01/08 10:49:38;;;;;;;2.33;0.20;;;;;;;6.93;100.00;98582.28;4987311;28;20111;-56
2023/01/08 10:52:04;;;;;;;8.05;1.20;;;;;;;6.94;100.00;98594.44;4986361;28;20123;-53
2023/01/08 10:54:35;;;;;;;6.18;0.30;;;;;;;6.87;100.00;98585.78;4988533;28;20389;-58
2023/01/08 10:57:01;;;;;;;1.52;0.50;;;;;;;6.83;100.00;98572.22;4985448;28;20034;-57
2023/01/08 10:59:27;;;;;;;2.17;0.30;;;;;;;6.85;100.00;98580.72;4992084;28;20031;-58
2023/01/08 11:01:57;;;;;;;3.72;0.65;;;;;;;6.87;100.00;98577.88;4986704;28;20042;-59
2023/01/08 11:04:31;;;;;;;6.88;0.43;;;;;;;6.85;100.00;98577.28;4992831;28;20578;-57
2023/01/08 11:07:01;;;;;;;1.05;0.10;;;;;;;6.84;100.00;98568.59;4992094;28;20502;-58
2023/01/08 11:09:32;;;;;;;0.00;0.00;;;;;;;6.97;100.00;98565.03;4988979;28;20034;-58
2023/01/08 11:11:58;;;;;;;1.90;0.30;;;;;;;6.97;100.00;98550.03;4993946;28;20022;-54
2023/01/08 11:14:37;;;;;;;5.07;0.17;;;;;;;6.97;100.00;98533.44;4996262;28;20034;-53
2023/01/08 11:17:10;;;;;;;2.55;0.00;;;;;;;7.04;100.00;98525.44;4988644;28;20080;-52
2023/01/08 11:19:35;;;;;;;6.55;0.20;;;;;;;6.99;100.00;98526.09;4985902;28;20026;-51
2023/01/08 11:22:04;;;;;;;0.70;0.00;;;;;;;7.00;100.00;98509.28;4984806;28;21258;-58
2023/01/08 11:24:33;;;;;;;3.15;0.10;;;;;;;7.03;100.00;98487.75;4990096;28;20113;-54
2023/01/08 11:27:01;;;;;;;0.68;0.20;;;;;;;7.03;100.00;98482.50;4984136;28;20400;-56
2023/01/08 11:29:37;;;;;;;0.60;0.08;;;;;;;7.12;100.00;98481.16;4986886;28;20030;-55
2023/01/08 11:32:14;;;;;;;10.57;0.93;;;;;;;7.35;100.00;98482.38;4989074;28;20038;-54
2023/01/08 11:34:52;;;;;;;3.53;1.27;;;;;;;7.43;100.00;98463.63;4986524;28;20388;-53